Latest Coastal Weather Observations for Lockhart River

IDQ60701

Issued at 5:21 am EST Sunday 21 December 2014 (issued every 10 minutes, with the page automatically refreshed every 10 minutes)

About coastal observations | Map of coastal stations | Coastal observations for QLD | Marine services | Other Formats
Station Details ID: 028008 Name: LOCKHART RIVER AIRPORT Lat: -12.79 Lon: 143.30 Height: 18.5 m
Data from the previous 72 hours. | See also: Recent months at Lockhart River
Date/Time
EST
Temp

°C
Wind Pressure Rain
since 9am
mm
Weather Cloud Vis
km
Sea
Height
m
Swell
Dir
 
Speed
knots
Gust
knots
hPa Trend Height
m
Period
s
Dir
21/05:00am 24.9 NNW 1 4 1008.8 - 0.0 - Partly cloudy - - - - -
21/04:30am 25.3 WNW 3 4 1008.5 - 0.0 - Partly cloudy - - - - -
21/04:00am 25.6 CALM 0 0 1008.3 - 0.0 - Partly cloudy - - - - -
21/03:30am 26.0 WNW 1 4 1008.5 - 0.0 - Partly cloudy - - - - -
21/03:00am 27.0 CALM 0 0 1008.7 - 0.0 - Partly cloudy - - - - -
21/02:30am 27.4 ENE 2 3 1008.9 - 0.0 - Partly cloudy - - - - -
21/02:00am 27.7 ENE 4 6 1008.8 - 0.0 - Partly cloudy - - - - -
21/01:30am 27.8 E 4 5 1009.1 - 0.0 - Partly cloudy - - - - -
21/01:00am 28.0 E 5 8 1009.4 - 0.0 - Partly cloudy - - - - -
21/12:30am 28.1 E 5 8 1009.6 - 0.0 - Partly cloudy - - - - -
 
Date/Time
EST
Temp

°C
Wind Pressure Rain
since 9am
mm
Weather Cloud Vis
km
Sea
Height
m
Swell
Dir
 
Speed
knots
Gust
knots
hPa Trend Height
m
Period
s
Dir
20/11:30pm 28.1 E 5 7 1009.8 - 0.0 - Partly cloudy - - - - -
20/11:00pm 28.2 E 7 12 1010.0 - 0.0 - Partly cloudy - - - - -
20/10:30pm 28.3 E 4 6 1010.0 - 0.0 - Partly cloudy - - - - -
20/10:00pm 28.5 E 6 10 1009.8 - 0.0 - Partly cloudy - - - - -
20/09:30pm 28.4 E 5 8 1009.9 - 0.0 - Partly cloudy - - - - -
20/09:00pm 28.5 E 6 11 1009.6 - 0.0 - Partly cloudy - - - - -
20/08:30pm 28.5 E 7 10 1009.3 - 0.0 - Partly cloudy - - - - -
20/08:00pm 28.7 E 8 13 1008.9 - 0.0 - Partly cloudy - - - - -
20/07:30pm 28.8 E 6 9 1008.6 - 0.0 - Partly cloudy - - - - -
20/07:00pm 28.8 E 6 8 1008.4 - 0.0 - Partly cloudy - - - - -
20/06:30pm 29.2 E 6 10 1008.1 - 0.0 - Partly cloudy - - - - -
20/06:00pm 29.3 E 8 11 1007.6 - 0.0 - - - - - - -
20/05:30pm 29.8 E 8 14 1007.3 - 0.0 - - - - - - -
20/05:00pm 30.5 E 8 12 1007.3 - 0.0 - - - - - - -
20/04:30pm 31.3 ENE 8 12 1007.2 - 0.0 - - - - - - -
20/04:00pm 31.4 E 10 13 1007.1 - 0.0 - - - - - - -
20/03:30pm 31.8 E 10 14 1007.1 - 0.0 - - - - - - -
20/03:00pm 31.8 ENE 10 16 1007.2 - 0.0 Fine Mostly cloudy 30 - - - -
20/02:30pm 32.2 E 11 16 1007.5 - 0.0 - - - - - - -
20/02:00pm 32.1 E 10 15 1008.1 - 0.0 - - - - - - -
20/01:30pm 31.7 ENE 10 16 1008.5 - 0.0 - - - - - - -
20/01:00pm 31.8 NE 9 14 1008.6 - 0.0 - - - - - - -
20/12:30pm 31.8 E 10 15 1009.1 - 0.0 - - - - - - -
20/12:00pm 31.9 E 9 15 1009.4 - 0.0 - - - - - - -
20/11:30am 31.9 ENE 8 12 1010.1 - 0.0 - - - - - - -
20/11:00am 31.8 E 8 12 1010.4 - 0.0 - - - - - - -
20/10:30am 31.6 E 9 14 1010.4 - 0.0 - - - - - - -
20/10:00am 31.8 ENE 7 9 1010.8 - 0.0 - Partly cloudy - - - - -
20/09:30am 31.3 ENE 7 11 1010.8 - 0.0 - Partly cloudy - - - - -
20/09:00am 30.2 E 5 7 1010.7 - 0.0 Fine Mostly cloudy 30 - - - -
20/08:30am 29.1 E 3 6 1011.0 - 0.0 - Partly cloudy - - - - -
20/08:00am 28.2 WNW 2 4 1010.8 - 0.0 - - - - - - -
20/07:30am 25.7 WNW 1 3 1010.6 - 0.0 - Partly cloudy - - - - -
20/07:00am 24.5 CALM 0 0 1010.5 - 0.0 - Partly cloudy - - - - -
20/06:30am 23.5 CALM 0 0 1010.2 - 0.0 - Partly cloudy - - - - -
20/06:00am 23.1 CALM 0 0 1009.7 - 0.0 - Partly cloudy - - - - -
20/05:30am 23.1 CALM 0 0 1009.5 - 0.0 - - - - - - -
20/05:00am 23.1 WNW 3 4 1008.8 - 0.0 - - - - - - -
20/04:30am 23.2 NW 2 4 1008.5 - 0.0 - - - - - - -
20/04:00am 23.6 CALM 0 3 1008.4 - 0.0 - - - - - - -
20/03:30am 23.9 CALM 0 0 1008.5 - 0.0 - - - - - - -
20/03:00am 24.2 CALM 0 2 1008.5 - 0.0 - Partly cloudy - - - - -
20/02:30am 24.1 NW 3 4 1009.2 - 0.0 - Partly cloudy - - - - -
20/02:00am 24.2 NNW 2 3 1009.4 - 0.0 - Partly cloudy - - - - -
20/01:30am 24.6 W 2 3 1009.6 - 0.0 - Partly cloudy - - - - -
20/01:00am 24.8 NNW 3 4 1009.4 - 0.0 - Partly cloudy - - - - -
20/12:30am 25.2 WNW 1 3 1010.0 - 0.0 - Partly cloudy - - - - -
20/12:00am 25.6 NW 1 3 1010.6 - 0.0 - Partly cloudy - - - - -
 
Date/Time
EST
Temp

°C
Wind Pressure Rain
since 9am
mm
Weather Cloud Vis
km
Sea
Height
m
Swell
Dir
 
Speed
knots
Gust
knots
hPa Trend Height
m
Period
s
Dir
19/11:30pm 25.4 NNW 2 4 1011.3 - 0.0 - Partly cloudy - - - - -
19/11:00pm 25.5 NW 4 5 1011.1 - 0.0 - Partly cloudy - - - - -
19/10:30pm 26.3 NW 1 3 1010.9 - 0.0 - Partly cloudy - - - - -
19/10:00pm 27.4 E 4 5 1010.3 - 0.0 - Partly cloudy - - - - -
19/09:30pm 27.7 ENE 4 7 1010.3 - 0.0 - Partly cloudy - - - - -
19/09:00pm 27.8 ENE 4 6 1010.2 - 0.0 - Partly cloudy - - - - -
19/08:30pm 27.9 E 2 4 1009.9 - 0.0 - Partly cloudy - - - - -
19/08:00pm 27.8 E 3 5 1009.5 - 0.0 - Partly cloudy - - - - -
19/07:30pm 28.0 E 4 5 1009.2 - 0.0 - - - - - - -
19/07:00pm 28.3 E 5 7 1009.0 - 0.0 - - - - - - -
19/06:30pm 28.9 E 6 8 1008.5 - 0.0 - - - - - - -
19/06:00pm 29.5 E 8 11 1008.3 - 0.0 - - - - - - -
19/05:30pm 29.9 E 8 14 1008.3 - 0.0 - - - - - - -
19/05:00pm 30.7 E 8 11 1008.1 - 0.0 - - - - - - -
19/04:30pm 31.3 E 10 15 1008.0 - 0.0 - - - - - - -
19/04:00pm 32.2 ENE 8 12 1007.9 - 0.0 - - - - - - -
19/03:30pm 32.4 E 9 15 1008.0 - 0.0 - - - - - - -
19/03:00pm 31.8 E 10 14 1008.2 - 0.0 Fine Partly cloudy 30 - - - -
19/02:30pm 32.2 E 10 16 1008.5 - 0.0 - - - - - - -
19/02:00pm 32.2 E 8 12 1008.9 - 0.0 - - - - - - -
19/01:30pm 32.2 ENE 9 14 1009.1 - 0.0 - - - - - - -
19/01:00pm 31.9 E 9 15 1009.6 - 0.0 - - - - - - -
19/12:30pm 32.2 E 9 13 1010.1 - 0.0 - - - - - - -
19/12:00pm 31.4 E 9 13 1010.0 - 0.0 - - - - - - -
19/11:30am 31.4 SE 8 11 1010.5 - 0.0 - - - - - - -
19/11:00am 31.2 E 7 15 1011.0 - 0.0 - - - - - - -
19/10:30am 31.6 E 7 10 1011.2 - 0.0 - - - - - - -
19/10:00am 30.4 E 5 9 1011.8 - 0.0 - Partly cloudy - - - - -
19/09:30am 30.1 ENE 5 7 1012.0 - 0.0 - Partly cloudy - - - - -
19/09:00am 29.3 E 4 5 1011.9 - 0.2 Fine Mostly cloudy 18 - - - -
19/08:30am 29.0 E 2 5 1011.8 - 0.2 - Partly cloudy - - - - -
19/08:00am 28.2 W 4 6 1011.4 - 0.2 - Partly cloudy - - - - -
19/07:30am 26.4 CALM 0 0 1011.4 - 0.2 - Partly cloudy - - - - -
19/07:00am 24.9 CALM 0 0 1011.1 - 0.2 - Cloudy - - - - -
19/06:30am 23.9 CALM 0 0 1011.1 - 0.2 - Cloudy - - - - -
19/06:00am 23.6 N 1 3 1010.7 - 0.2 - Partly cloudy - - - - -
19/05:30am 23.9 CALM 0 0 1010.3 - 0.2 - - - - - - -
19/05:00am 24.1 CALM 0 0 1010.0 - 0.2 - Partly cloudy - - - - -
19/04:30am 24.2 CALM 0 0 1010.0 - 0.2 - Partly cloudy - - - - -
19/04:00am 24.3 CALM 0 0 1010.0 - 0.2 - Partly cloudy - - - - -
19/03:30am 24.6 CALM 0 3 1010.2 - 0.2 - Partly cloudy - - - - -
19/03:00am 24.8 E 1 3 1010.4 - 0.2 - Partly cloudy - - - - -
19/02:30am 24.6 SSE 1 3 1010.6 - 0.2 - Partly cloudy - - - - -
19/02:00am 24.8 N 1 3 1010.6 - 0.2 - Partly cloudy - - - - -
19/01:30am 25.0 N 1 3 1010.5 - 0.2 - Partly cloudy - - - - -
19/01:00am 24.9 WNW 3 4 1010.4 - 0.2 - Partly cloudy - - - - -
19/12:30am 25.4 WNW 1 3 1010.5 - 0.2 - Partly cloudy - - - - -
19/12:00am 25.4 N 1 4 1010.5 - 0.2 - Partly cloudy - - - - -
 
Date/Time
EST
Temp

°C
Wind Pressure Rain
since 9am
mm
Weather Cloud Vis
km
Sea
Height
m
Swell
Dir
 
Speed
knots
Gust
knots
hPa Trend Height
m
Period
s
Dir
18/11:30pm 25.7 CALM 0 0 1010.7 - 0.2 - Cloudy - - - - -
18/11:00pm 25.8 CALM 0 2 1010.7 - 0.2 - Partly cloudy - - - - -
18/10:30pm 25.6 CALM 0 0 1010.6 - 0.2 - Partly cloudy - - - - -
18/10:00pm 25.6 NNW 3 5 1010.0 - 0.2 - Partly cloudy - - - - -
18/09:30pm 26.0 WNW 3 4 1009.7 - 0.2 - Partly cloudy - - - - -
18/09:00pm 26.5 CALM 0 0 1009.2 - 0.2 - Partly cloudy - - - - -
18/08:30pm 26.8 CALM 0 0 1009.1 - 0.2 - Partly cloudy - - - - -
18/08:00pm 27.4 E 2 5 1009.1 - 0.2 - Partly cloudy - - - - -
18/07:30pm 27.9 ENE 1 4 1009.2 - 0.2 - Partly cloudy - - - - -
18/07:00pm 28.2 NE 4 6 1008.8 - 0.2 - Cloudy - - - - -
18/06:30pm 28.6 NE 6 10 1008.7 - 0.2 - Cloudy - - - - -
18/06:00pm 29.0 ENE 7 10 1008.4 - 0.2 - Partly cloudy - - - - -
18/05:30pm 29.2 ENE 9 12 1008.5 - 0.2 - Partly cloudy - - - - -
18/05:00pm 29.1 E 9 13 1008.7 - 0.2 - Partly cloudy - - - - -
18/04:30pm 29.9 E 8 12 1008.5 - 0.2 - Partly cloudy - - - - -
18/04:00pm 30.0 E 10 15 1008.4 - 0.2 - Partly cloudy - - - - -
18/03:30pm 30.2 E 11 15 1008.4 - 0.2 - Partly cloudy - - - - -
18/03:00pm 31.3 E 10 13 1008.3 - 0.2 Fine Partly cloudy 30 - - - -
18/02:30pm 31.0 E 9 15 1008.7 - 0.2 - Partly cloudy - - - - -
18/02:00pm 31.4 E 11 16 1009.0 - 0.2 - Partly cloudy - - - - -
18/01:30pm 31.4 E 11 16 1009.2 - 0.2 - Partly cloudy - - - - -
18/01:00pm 31.2 E 11 17 1009.6 - 0.2 - Partly cloudy - - - - -
18/12:30pm 31.2 E 12 16 1009.9 - 0.2 - Partly cloudy - - - - -
18/12:00pm 31.6 E 10 14 1010.0 - 0.2 - Partly cloudy - - - - -
18/11:30am 31.6 E 10 15 1010.3 - 0.2 - Partly cloudy - - - - -
18/11:00am 31.1 ENE 9 12 1010.6 - 0.2 - - - - - - -
18/10:30am 29.9 ENE 7 10 1010.9 - 0.2 - Partly cloudy - - - - -
18/10:00am 29.7 E 6 7 1011.0 - 0.0 - Partly cloudy - - - - -
18/09:30am 28.7 ESE 4 5 1011.1 - 0.0 - Partly cloudy - - - - -
18/09:00am 27.3 ENE 4 6 1011.1 - 2.4 Fine Mostly cloudy 18 - - - -
18/08:30am 26.9 CALM 0 2 1011.3 - 2.4 - Partly cloudy - - - - -
18/08:07am 26.6 NNW 3 5 1011.2 - 2.4 - Partly cloudy - - - - -
18/08:00am 26.7 WSW 1 3 1011.2 - 2.4 - Partly cloudy - - - - -
18/07:30am 26.0 NW 2 3 1011.1 - 2.4 - Partly cloudy - - - - -
18/07:22am 25.9 WNW 1 3 1011.0 - 2.4 - Partly cloudy - - - - -
18/07:00am 25.9 N 1 4 1010.7 - 2.4 - Partly cloudy - - - - -
18/06:43am 25.7 CALM 0 0 1010.4 - 2.4 - Partly cloudy - - - - -
18/06:33am 25.6 CALM 0 0 1010.4 - 2.4 - Partly cloudy - - - - -
18/06:30am 25.7 CALM 0 0 1010.3 - 2.4 - Partly cloudy - - - - -
18/06:00am 25.7 CALM 0 0 1009.8 - 2.4 - Partly cloudy - - - - -
18/05:30am 25.8 ENE 3 5 1009.6 - 2.2 - Partly cloudy - - - - -

Other Formats:

Comma delimited format used in spreadsheet applications
http://www.bom.gov.au/fwo/IDQ60701/IDQ60701.94186.axf

JavaScript Object Notation format (JSON) in row-major order
http://www.bom.gov.au/fwo/IDQ60701/IDQ60701.94186.json